Time;durP1;ratioP1;P1;durP2;ratioP2;P2;SDS_P1;SDS_P2;PMS_P1;PMS_P2;Temp;Humidity;BMP_temperature;BMP_pressure;BME280_temperature;BME280_humidity;BME280_pressure;Samples;Min_cycle;Max_cycle;Signal;HPM_P1;HPM_P2
2022/08/30 00:03:01;;;;;;;;;;;16.80;99.90;;;;;;5095777;28;20380;-73
2022/08/30 00:05:27;;;;;;;;;;;16.80;99.90;;;;;;5094894;28;19916;-73
2022/08/30 00:07:53;;;;;;;;;;;16.70;99.90;;;;;;5095263;28;20323;-73
2022/08/30 00:10:19;;;;;;;;;;;16.70;99.90;;;;;;5094942;28;19908;-73
2022/08/30 00:12:45;;;;;;;;;;;16.60;99.90;;;;;;5094486;28;20085;-73
2022/08/30 00:15:12;;;;;;;;;;;16.60;99.90;;;;;;5095445;28;19940;-72
2022/08/30 00:17:37;;;;;;;;;;;16.60;99.90;;;;;;5094876;28;19955;-72
2022/08/30 00:20:04;;;;;;;;;;;16.60;99.90;;;;;;5095101;28;19956;-72
2022/08/30 00:22:31;;;;;;;;;;;16.60;99.90;;;;;;5094706;28;20341;-72
2022/08/30 00:24:59;;;;;;;;;;;16.60;99.90;;;;;;5095102;28;20010;-73
2022/08/30 00:27:28;;;;;;;;;;;16.60;99.90;;;;;;5094638;28;20269;-73
2022/08/30 00:29:54;;;;;;;;;;;16.60;99.90;;;;;;5095202;28;20250;-73
2022/08/30 00:32:20;;;;;;;;;;;16.60;99.90;;;;;;5094282;28;19931;-73
2022/08/30 00:34:46;;;;;;;;;;;16.70;99.90;;;;;;5094827;28;19967;-73
2022/08/30 00:37:12;;;;;;;;;;;16.60;99.90;;;;;;5094727;28;19919;-72
2022/08/30 00:39:37;;;;;;;;;;;16.70;99.90;;;;;;5094486;28;19999;-73
2022/08/30 00:42:03;;;;;;;;;;;16.60;99.90;;;;;;5093685;28;19995;-73
2022/08/30 00:44:29;;;;;;;;;;;16.70;99.90;;;;;;5093020;28;19912;-73
2022/08/30 00:46:54;;;;;;;;;;;16.60;99.90;;;;;;5094424;28;19912;-73
2022/08/30 00:49:20;;;;;;;;;;;16.70;99.90;;;;;;5094055;28;20373;-73
2022/08/30 00:51:46;;;;;;;;;;;16.70;99.90;;;;;;5094826;28;20357;-72
2022/08/30 00:54:12;;;;;;;;;;;16.70;99.90;;;;;;5094582;28;20264;-73
2022/08/30 00:56:38;;;;;;;;;;;16.70;99.90;;;;;;5093960;28;20517;-73
2022/08/30 00:59:04;;;;;;;;;;;16.70;99.90;;;;;;5094321;28;19915;-73
2022/08/30 01:01:31;;;;;;;;;;;16.80;99.90;;;;;;5092997;28;19908;-73
2022/08/30 01:03:57;;;;;;;;;;;16.80;99.90;;;;;;5094354;28;20369;-73
2022/08/30 01:06:24;;;;;;;;;;;16.80;99.90;;;;;;5093677;28;19919;-73
2022/08/30 01:08:50;;;;;;;;;;;16.80;99.90;;;;;;5094685;28;20365;-73
2022/08/30 01:11:19;;;;;;;;;;;16.80;99.90;;;;;;5093249;28;19922;-73
2022/08/30 01:13:46;;;;;;;;;;;16.90;99.90;;;;;;5093789;28;19908;-73
2022/08/30 01:16:12;;;;;;;;;;;16.90;99.90;;;;;;5094298;28;19915;-72
2022/08/30 01:18:38;;;;;;;;;;;16.90;99.90;;;;;;5093637;28;19915;-74
2022/08/30 01:21:07;;;;;;;;;;;16.90;99.90;;;;;;5094176;28;19908;-74
2022/08/30 01:23:37;;;;;;;;;;;16.90;99.90;;;;;;5093304;28;19912;-71
2022/08/30 01:26:04;;;;;;;;;;;16.80;99.90;;;;;;5094154;28;19917;-72
2022/08/30 01:28:31;;;;;;;;;;;16.90;99.90;;;;;;5093189;28;20002;-72
2022/08/30 01:30:57;;;;;;;;;;;16.90;99.90;;;;;;5093666;28;19919;-72
2022/08/30 01:33:23;;;;;;;;;;;16.80;99.90;;;;;;5093573;28;19908;-73
2022/08/30 01:35:52;;;;;;;;;;;16.80;99.90;;;;;;5093890;28;20383;-73
2022/08/30 01:38:20;;;;;;;;;;;16.80;99.90;;;;;;5093690;28;19961;-72
2022/08/30 01:40:46;;;;;;;;;;;16.80;99.90;;;;;;5093385;28;20019;-73
2022/08/30 01:43:12;;;;;;;;;;;16.80;99.90;;;;;;5093485;28;20349;-73
2022/08/30 01:45:38;;;;;;;;;;;16.80;99.90;;;;;;5091668;28;20319;-72
2022/08/30 01:48:04;;;;;;;;;;;16.70;99.90;;;;;;5093604;28;19915;-73
2022/08/30 01:50:29;;;;;;;;;;;16.70;99.90;;;;;;5091760;28;19908;-73
2022/08/30 01:52:55;;;;;;;;;;;16.70;99.90;;;;;;5093658;28;19908;-72
2022/08/30 01:55:20;;;;;;;;;;;16.70;99.90;;;;;;5093569;28;20277;-72
2022/08/30 01:57:46;;;;;;;;;;;16.70;99.90;;;;;;5093022;28;19916;-73
2022/08/30 02:00:12;;;;;;;;;;;16.70;99.90;;;;;;5093674;28;19908;-72
2022/08/30 02:02:38;;;;;;;;;;;16.60;99.90;;;;;;5092680;28;19915;-72
2022/08/30 02:05:05;;;;;;;;;;;16.60;99.90;;;;;;5093371;28;19916;-72
2022/08/30 02:07:30;;;;;;;;;;;16.60;99.90;;;;;;5092688;28;19916;-72
2022/08/30 02:09:56;;;;;;;;;;;16.50;99.90;;;;;;5092998;28;19912;-72
2022/08/30 02:12:22;;;;;;;;;;;16.50;99.90;;;;;;5093013;28;19908;-73
2022/08/30 02:14:47;;;;;;;;;;;16.50;99.90;;;;;;5092357;28;19934;-72
2022/08/30 02:17:13;;;;;;;;;;;16.50;99.90;;;;;;5093130;28;19908;-72
2022/08/30 02:19:39;;;;;;;;;;;16.50;99.90;;;;;;5092316;28;19908;-73
2022/08/30 02:22:05;;;;;;;;;;;16.40;99.90;;;;;;5092911;28;19962;-73
2022/08/30 02:24:31;;;;;;;;;;;16.40;99.90;;;;;;5092214;28;20327;-73
2022/08/30 02:26:56;;;;;;;;;;;16.40;99.90;;;;;;5092997;28;19920;-73
2022/08/30 02:29:22;;;;;;;;;;;16.30;99.90;;;;;;5093409;28;19908;-73
2022/08/30 02:31:48;;;;;;;;;;;16.30;99.90;;;;;;5092517;28;19912;-73
2022/08/30 02:34:14;;;;;;;;;;;16.30;99.90;;;;;;5092803;28;19908;-73
2022/08/30 02:36:40;;;;;;;;;;;16.30;99.90;;;;;;5092211;28;20257;-73
2022/08/30 02:39:07;;;;;;;;;;;16.30;99.90;;;;;;5092862;28;20069;-73
2022/08/30 02:41:32;;;;;;;;;;;16.20;99.90;;;;;;5092209;28;19912;-73
2022/08/30 02:43:59;;;;;;;;;;;16.30;99.90;;;;;;5093207;28;19908;-73
2022/08/30 02:46:25;;;;;;;;;;;16.20;99.90;;;;;;5093030;28;19912;-72
2022/08/30 02:48:50;;;;;;;;;;;16.20;99.90;;;;;;5092552;28;19915;-73
2022/08/30 02:51:16;;;;;;;;;;;16.20;99.90;;;;;;5093108;28;20028;-73
2022/08/30 02:53:42;;;;;;;;;;;16.20;99.90;;;;;;5092119;28;19909;-73
2022/08/30 02:56:09;;;;;;;;;;;16.20;99.90;;;;;;5091820;28;19912;-73
2022/08/30 02:58:35;;;;;;;;;;;16.20;99.90;;;;;;5092259;28;19908;-73
2022/08/30 03:01:01;;;;;;;;;;;16.10;99.90;;;;;;5092855;28;20268;-73
2022/08/30 03:03:26;;;;;;;;;;;16.10;99.90;;;;;;5092053;28;19912;-73
2022/08/30 03:05:52;;;;;;;;;;;16.00;99.90;;;;;;5092375;28;19912;-73
2022/08/30 03:08:17;;;;;;;;;;;16.00;99.90;;;;;;5092510;28;19912;-73
2022/08/30 03:10:43;;;;;;;;;;;16.00;99.90;;;;;;5092273;28;19977;-73
2022/08/30 03:13:09;;;;;;;;;;;15.90;99.90;;;;;;5092381;28;19951;-73
2022/08/30 03:15:36;;;;;;;;;;;15.90;99.90;;;;;;5092171;28;19951;-73
2022/08/30 03:18:01;;;;;;;;;;;15.90;99.90;;;;;;5092675;28;19909;-73
2022/08/30 03:20:27;;;;;;;;;;;15.90;99.90;;;;;;5092634;28;20037;-73
2022/08/30 03:22:53;;;;;;;;;;;15.90;99.90;;;;;;5091974;28;20002;-73
2022/08/30 03:25:19;;;;;;;;;;;15.80;99.90;;;;;;5096235;28;20352;-73
2022/08/30 03:27:45;;;;;;;;;;;15.80;99.90;;;;;;5095862;28;19912;-73
2022/08/30 03:30:11;;;;;;;;;;;15.80;99.90;;;;;;5096139;28;19908;-73
2022/08/30 03:32:37;;;;;;;;;;;15.80;99.90;;;;;;5095652;28;19912;-73
2022/08/30 03:35:03;;;;;;;;;;;15.80;99.90;;;;;;5096609;28;19927;-73
2022/08/30 03:37:28;;;;;;;;;;;15.70;99.90;;;;;;5096211;28;20369;-73
2022/08/30 03:39:54;;;;;;;;;;;15.70;99.90;;;;;;5095475;28;19908;-73
2022/08/30 03:42:20;;;;;;;;;;;15.70;99.90;;;;;;5096239;28;19991;-73
2022/08/30 03:44:45;;;;;;;;;;;15.70;99.90;;;;;;5095480;28;20008;-73
2022/08/30 03:47:11;;;;;;;;;;;15.70;99.90;;;;;;5095788;28;19916;-73
2022/08/30 03:49:37;;;;;;;;;;;15.70;99.90;;;;;;5095753;28;19918;-73
2022/08/30 03:52:02;;;;;;;;;;;15.70;99.90;;;;;;5095713;28;20071;-73
2022/08/30 03:54:28;;;;;;;;;;;15.70;99.90;;;;;;5095933;28;20337;-73
2022/08/30 03:56:53;;;;;;;;;;;15.70;99.90;;;;;;5095352;28;20369;-73
2022/08/30 03:59:19;;;;;;;;;;;15.70;99.90;;;;;;5095832;28;19931;-73
2022/08/30 04:01:46;;;;;;;;;;;15.70;99.90;;;;;;5095155;28;19908;-73
2022/08/30 04:04:12;;;;;;;;;;;15.70;99.90;;;;;;5095546;28;19912;-73
2022/08/30 04:06:38;;;;;;;;;;;15.70;99.90;;;;;;5095174;28;19919;-73
2022/08/30 04:09:03;;;;;;;;;;;15.70;99.90;;;;;;5095504;28;20345;-73
2022/08/30 04:11:29;;;;;;;;;;;15.60;99.90;;;;;;5095653;28;19915;-73
2022/08/30 04:13:55;;;;;;;;;;;15.60;99.90;;;;;;5094745;28;19912;-73
2022/08/30 04:16:21;;;;;;;;;;;15.50;99.90;;;;;;5095496;28;19912;-73
2022/08/30 04:18:47;;;;;;;;;;;15.60;99.90;;;;;;5094472;28;19962;-73
2022/08/30 04:21:13;;;;;;;;;;;15.60;99.90;;;;;;5095538;28;19908;-73
2022/08/30 04:23:38;;;;;;;;;;;15.60;99.90;;;;;;5093549;28;20357;-73
2022/08/30 04:26:04;;;;;;;;;;;15.60;99.90;;;;;;5095371;28;20010;-73
2022/08/30 04:28:30;;;;;;;;;;;15.60;99.90;;;;;;5095272;28;19938;-73
2022/08/30 04:30:55;;;;;;;;;;;15.60;99.90;;;;;;5094532;28;19916;-73
2022/08/30 04:33:21;;;;;;;;;;;15.60;99.90;;;;;;5095023;28;19912;-73
2022/08/30 04:35:47;;;;;;;;;;;15.60;99.90;;;;;;5094452;28;19924;-73
2022/08/30 04:38:14;;;;;;;;;;;15.60;99.90;;;;;;5094976;28;19961;-73
2022/08/30 04:40:43;;;;;;;;;;;15.60;99.90;;;;;;5094088;28;20376;-74
2022/08/30 04:43:10;;;;;;;;;;;15.60;99.90;;;;;;5094808;28;19915;-73
2022/08/30 04:45:37;;;;;;;;;;;15.60;99.90;;;;;;5094502;28;19912;-73
2022/08/30 04:48:02;;;;;;;;;;;15.60;99.90;;;;;;5094875;28;19916;-71
2022/08/30 04:50:28;;;;;;;;;;;15.60;99.90;;;;;;5093512;28;19995;-72
2022/08/30 04:52:53;;;;;;;;;;;15.60;99.90;;;;;;5094222;28;19915;-73
2022/08/30 04:55:19;;;;;;;;;;;15.60;99.90;;;;;;5094480;28;20385;-72
2022/08/30 04:57:44;;;;;;;;;;;15.60;99.90;;;;;;5093930;28;19916;-73
2022/08/30 05:00:12;;;;;;;;;;;15.60;99.90;;;;;;5094513;28;19958;-73
2022/08/30 05:02:38;;;;;;;;;;;15.60;99.90;;;;;;5093938;28;19908;-73
2022/08/30 05:07:48;;;;;;;;;;;15.70;99.90;;;;;;5093995;28;19919;-72
2022/08/30 05:10:14;;;;;;;;;;;15.60;99.90;;;;;;5094063;28;19908;-72
2022/08/30 05:12:40;;;;;;;;;;;15.60;99.90;;;;;;5094282;28;19908;-73
2022/08/30 05:15:06;;;;;;;;;;;15.60;99.90;;;;;;5093937;28;19990;-72
2022/08/30 05:17:32;;;;;;;;;;;15.60;99.90;;;;;;5094292;28;19912;-72
2022/08/30 05:19:59;;;;;;;;;;;15.60;99.90;;;;;;5093734;28;19981;-72
2022/08/30 05:22:25;;;;;;;;;;;15.60;99.90;;;;;;5094276;28;20003;-72
2022/08/30 05:24:50;;;;;;;;;;;15.60;99.90;;;;;;5093211;28;20341;-72
2022/08/30 05:27:16;;;;;;;;;;;15.60;99.90;;;;;;5094370;28;19916;-73
2022/08/30 05:29:42;;;;;;;;;;;15.60;99.90;;;;;;5093488;28;19912;-73
2022/08/30 05:32:08;;;;;;;;;;;15.60;99.90;;;;;;5092742;28;20315;-73
2022/08/30 05:34:33;;;;;;;;;;;15.50;99.90;;;;;;5092258;28;20011;-72
2022/08/30 05:37:00;;;;;;;;;;;15.50;99.90;;;;;;5093148;28;20466;-73
2022/08/30 05:39:26;;;;;;;;;;;15.50;99.90;;;;;;5093776;28;19915;-73
2022/08/30 05:41:54;;;;;;;;;;;15.50;99.90;;;;;;5093083;28;19998;-73
2022/08/30 05:44:20;;;;;;;;;;;15.60;99.90;;;;;;5092340;28;19913;-73
2022/08/30 05:46:46;;;;;;;;;;;15.60;99.90;;;;;;5092718;28;19931;-73
2022/08/30 05:49:12;;;;;;;;;;;15.60;99.90;;;;;;5093610;28;19909;-73
2022/08/30 05:51:37;;;;;;;;;;;15.60;99.90;;;;;;5093508;28;19908;-73
2022/08/30 05:54:04;;;;;;;;;;;15.70;99.90;;;;;;5093037;28;20357;-72
2022/08/30 05:56:31;;;;;;;;;;;15.60;99.90;;;;;;5093485;28;19941;-73
2022/08/30 05:58:57;;;;;;;;;;;15.70;99.90;;;;;;5092651;28;19912;-71
2022/08/30 06:01:23;;;;;;;;;;;15.70;99.90;;;;;;5093408;28;19908;-72
2022/08/30 06:03:48;;;;;;;;;;;15.60;99.90;;;;;;5092778;28;20372;-72
2022/08/30 06:06:14;;;;;;;;;;;15.70;99.90;;;;;;5093228;28;19966;-73
2022/08/30 06:08:41;;;;;;;;;;;15.70;99.90;;;;;;5093156;28;19908;-72
2022/08/30 06:11:07;;;;;;;;;;;15.70;99.90;;;;;;5092903;28;19967;-72
2022/08/30 06:13:32;;;;;;;;;;;15.70;99.90;;;;;;5093060;28;19912;-73
2022/08/30 06:15:58;;;;;;;;;;;15.70;99.90;;;;;;5092399;28;19961;-73
2022/08/30 06:18:23;;;;;;;;;;;15.70;99.90;;;;;;5091700;28;19908;-73
2022/08/30 06:20:50;;;;;;;;;;;15.70;99.90;;;;;;5093644;28;19954;-70
2022/08/30 06:23:19;;;;;;;;;;;15.80;99.90;;;;;;5093108;28;19924;-73
2022/08/30 06:25:45;;;;;;;;;;;15.80;99.90;;;;;;5091853;28;19912;-73
2022/08/30 06:28:11;;;;;;;;;;;15.90;99.90;;;;;;5092939;28;20048;-73
2022/08/30 06:30:38;;;;;;;;;;;15.90;99.90;;;;;;5092960;28;19915;-72
2022/08/30 06:33:04;;;;;;;;;;;15.80;99.90;;;;;;5092331;28;19969;-73
2022/08/30 06:35:31;;;;;;;;;;;15.90;99.90;;;;;;5091151;28;20022;-73
2022/08/30 06:37:56;;;;;;;;;;;16.00;99.90;;;;;;5092286;28;20083;-73
2022/08/30 06:40:22;;;;;;;;;;;16.10;99.90;;;;;;5091323;28;20045;-73
2022/08/30 06:42:48;;;;;;;;;;;16.30;99.90;;;;;;5092254;28;19908;-73
2022/08/30 06:45:15;;;;;;;;;;;16.30;99.90;;;;;;5092778;28;19920;-73
2022/08/30 06:47:41;;;;;;;;;;;16.40;99.90;;;;;;5092580;28;19912;-73
2022/08/30 06:50:07;;;;;;;;;;;16.50;99.90;;;;;;5092247;28;19916;-73
2022/08/30 06:52:32;;;;;;;;;;;16.60;99.90;;;;;;5092843;28;19993;-73
2022/08/30 06:54:58;;;;;;;;;;;16.80;99.90;;;;;;5092574;28;19948;-73
2022/08/30 06:57:24;;;;;;;;;;;16.90;99.90;;;;;;5092430;28;19962;-72
2022/08/30 06:59:53;;;;;;;;;;;17.00;99.90;;;;;;5094013;28;19931;-72
2022/08/30 07:02:19;;;;;;;;;;;17.00;99.90;;;;;;5096559;28;20009;-72
2022/08/30 07:04:45;;;;;;;;;;;17.10;99.90;;;;;;5096307;28;19912;-73
2022/08/30 07:07:10;;;;;;;;;;;17.20;99.90;;;;;;5096201;28;19958;-72
2022/08/30 07:09:41;;;;;;;;;;;17.30;99.90;;;;;;5096522;28;19915;-72
2022/08/30 07:12:10;;;;;;;;;;;17.30;99.90;;;;;;5095852;28;19912;-73
2022/08/30 07:14:36;;;;;;;;;;;17.30;99.90;;;;;;5096109;28;20376;-73
2022/08/30 07:18:49;;;;;;;;;;;17.40;99.90;;;;;;5095810;28;19908;-73
2022/08/30 07:19:48;;;;;;;;;;;17.50;99.90;;;;;;5095485;28;20392;-73
2022/08/30 07:22:14;;;;;;;;;;;17.60;99.90;;;;;;5096462;28;19908;-72
2022/08/30 07:24:39;;;;;;;;;;;17.70;99.90;;;;;;5096206;28;20013;-73
2022/08/30 07:27:05;;;;;;;;;;;17.80;99.90;;;;;;5094344;28;19920;-73
2022/08/30 07:29:30;;;;;;;;;;;17.90;99.90;;;;;;5096098;28;20426;-73
2022/08/30 07:31:56;;;;;;;;;;;17.90;99.90;;;;;;5095651;28;20003;-73
2022/08/30 07:34:21;;;;;;;;;;;18.00;99.90;;;;;;5095852;28;20353;-72
2022/08/30 07:36:47;;;;;;;;;;;18.00;99.90;;;;;;5095830;28;19908;-72
2022/08/30 07:39:13;;;;;;;;;;;18.10;99.90;;;;;;5095625;28;19913;-72
2022/08/30 07:41:38;;;;;;;;;;;18.10;99.90;;;;;;5094658;28;20345;-73
2022/08/30 07:44:05;;;;;;;;;;;18.20;99.90;;;;;;5095046;28;19908;-73
2022/08/30 07:46:30;;;;;;;;;;;18.40;99.90;;;;;;5095864;28;19912;-73
2022/08/30 07:48:57;;;;;;;;;;;18.30;99.90;;;;;;5095051;28;19908;-72
2022/08/30 07:51:24;;;;;;;;;;;18.30;99.90;;;;;;5095657;28;19908;-73
2022/08/30 07:53:50;;;;;;;;;;;18.30;99.90;;;;;;5095621;28;19908;-73
2022/08/30 07:56:15;;;;;;;;;;;18.40;99.90;;;;;;5096123;28;19908;-72
2022/08/30 07:58:41;;;;;;;;;;;18.30;99.90;;;;;;5095563;28;20384;-73
2022/08/30 08:01:08;;;;;;;;;;;18.30;99.90;;;;;;5095213;28;19912;-72
2022/08/30 08:03:34;;;;;;;;;;;18.30;99.90;;;;;;5094461;28;19909;-72
2022/08/30 08:06:00;;;;;;;;;;;18.40;99.90;;;;;;5094870;28;19911;-72
2022/08/30 08:08:26;;;;;;;;;;;18.50;99.90;;;;;;5095444;28;20012;-72
2022/08/30 08:10:51;;;;;;;;;;;18.40;99.90;;;;;;5094246;28;20347;-72
2022/08/30 08:13:17;;;;;;;;;;;18.50;99.90;;;;;;5095304;28;19908;-72
2022/08/30 08:15:46;;;;;;;;;;;18.50;99.90;;;;;;5095163;28;20430;-72
2022/08/30 08:18:12;;;;;;;;;;;18.60;99.90;;;;;;5092358;28;20024;-72
2022/08/30 08:20:38;;;;;;;;;;;18.60;99.90;;;;;;5094985;28;19999;-72
2022/08/30 08:23:04;;;;;;;;;;;18.60;99.90;;;;;;5094645;28;19908;-73
2022/08/30 08:25:30;;;;;;;;;;;18.50;99.90;;;;;;5095150;28;19958;-73
2022/08/30 08:27:55;;;;;;;;;;;18.60;99.90;;;;;;5094927;28;19918;-73
2022/08/30 08:30:21;;;;;;;;;;;18.60;99.90;;;;;;5095283;28;20342;-73
2022/08/30 08:32:47;;;;;;;;;;;18.70;99.90;;;;;;5095162;28;19912;-73
2022/08/30 08:35:14;;;;;;;;;;;18.70;99.90;;;;;;5094407;28;19924;-73
2022/08/30 08:37:39;;;;;;;;;;;18.70;99.90;;;;;;5093621;28;19912;-73
2022/08/30 08:40:05;;;;;;;;;;;18.80;99.90;;;;;;5094251;28;19999;-73
2022/08/30 08:42:31;;;;;;;;;;;18.80;99.90;;;;;;5095109;28;19908;-72
2022/08/30 08:44:56;;;;;;;;;;;18.80;99.90;;;;;;5093871;28;19927;-73
2022/08/30 08:47:25;;;;;;;;;;;18.80;99.90;;;;;;5094859;28;19912;-72
2022/08/30 08:49:54;;;;;;;;;;;18.90;99.90;;;;;;5094774;28;20377;-72
2022/08/30 08:55:10;;;;;;;;;;;18.90;99.90;;;;;;5094225;28;19915;-72
2022/08/30 08:57:36;;;;;;;;;;;18.80;99.90;;;;;;5094657;28;19908;-72
2022/08/30 09:00:03;;;;;;;;;;;18.90;99.90;;;;;;5092765;28;20264;-72
2022/08/30 09:02:34;;;;;;;;;;;19.00;99.90;;;;;;5094297;28;19912;-72
2022/08/30 09:05:01;;;;;;;;;;;19.00;99.90;;;;;;5093521;28;19919;-72
2022/08/30 09:07:29;;;;;;;;;;;19.00;99.90;;;;;;5094653;28;19916;-72
2022/08/30 09:09:56;;;;;;;;;;;19.00;99.90;;;;;;5093283;28;19908;-72
2022/08/30 09:12:22;;;;;;;;;;;18.90;99.90;;;;;;5094439;28;19908;-73
2022/08/30 09:14:52;;;;;;;;;;;19.00;99.90;;;;;;5093783;28;19915;-73
2022/08/30 09:17:19;;;;;;;;;;;19.00;99.90;;;;;;5093894;28;20284;-73
2022/08/30 09:19:55;;;;;;;;;;;18.90;99.90;;;;;;5094115;28;19912;-72
2022/08/30 09:22:25;;;;;;;;;;;18.90;99.90;;;;;;5093168;28;20007;-73
2022/08/30 09:24:59;;;;;;;;;;;18.80;99.90;;;;;;5094039;28;19919;-72
2022/08/30 09:27:26;;;;;;;;;;;18.80;99.90;;;;;;5094168;28;19911;-72
2022/08/30 09:29:55;;;;;;;;;;;18.90;99.90;;;;;;5093920;28;20315;-72
2022/08/30 09:32:31;;;;;;;;;;;18.90;99.90;;;;;;5093658;28;19912;-73
2022/08/30 09:34:57;;;;;;;;;;;18.90;99.90;;;;;;5093286;28;19924;-73
2022/08/30 09:37:24;;;;;;;;;;;18.90;99.90;;;;;;5093492;28;20340;-73
2022/08/30 09:39:50;;;;;;;;;;;19.00;99.90;;;;;;5093799;28;19909;-72
2022/08/30 09:42:22;;;;;;;;;;;19.00;99.90;;;;;;5093214;28;19930;-73
2022/08/30 09:44:48;;;;;;;;;;;19.10;99.90;;;;;;5093372;28;19945;-73
2022/08/30 09:47:40;;;;;;;;;;;19.10;99.90;;;;;;5093075;28;19912;-73
2022/08/30 09:50:10;;;;;;;;;;;19.20;99.90;;;;;;5091508;28;19909;-73
2022/08/30 09:52:36;;;;;;;;;;;19.10;99.90;;;;;;5093328;28;20353;-73
2022/08/30 09:55:01;;;;;;;;;;;19.10;99.90;;;;;;5092996;28;19914;-72
2022/08/30 09:57:35;;;;;;;;;;;19.20;99.90;;;;;;5093475;28;20250;-74
2022/08/30 10:00:10;;;;;;;;;;;19.20;99.90;;;;;;5093056;28;20369;-73
2022/08/30 10:02:42;;;;;;;;;;;19.20;99.90;;;;;;5093144;28;19915;-73
2022/08/30 10:05:07;;;;;;;;;;;19.20;99.90;;;;;;5092512;28;20456;-74
2022/08/30 10:07:51;;;;;;;;;;;19.10;99.90;;;;;;5093331;28;19955;-73
2022/08/30 10:10:29;;;;;;;;;;;19.10;99.90;;;;;;5092789;28;19998;-72
2022/08/30 10:12:54;;;;;;;;;;;19.10;99.90;;;;;;5093352;28;19931;-73
2022/08/30 10:15:23;;;;;;;;;;;19.10;99.90;;;;;;5092300;28;20357;-72
2022/08/30 10:17:55;;;;;;;;;;;19.10;99.90;;;;;;5093105;28;19908;-73
2022/08/30 10:20:33;;;;;;;;;;;19.10;99.90;;;;;;5092066;28;19952;-73
2022/08/30 10:23:05;;;;;;;;;;;19.00;99.90;;;;;;5091542;28;20368;-73
2022/08/30 10:25:30;;;;;;;;;;;19.00;99.90;;;;;;5092997;28;20370;-73
2022/08/30 10:28:00;;;;;;;;;;;19.00;99.90;;;;;;5093086;28;19912;-73
2022/08/30 10:30:26;;;;;;;;;;;18.90;99.90;;;;;;5093304;28;19961;-73
2022/08/30 10:32:57;;;;;;;;;;;19.00;99.90;;;;;;5092549;28;20284;-72
2022/08/30 10:35:24;;;;;;;;;;;19.10;99.90;;;;;;5092356;28;19959;-73
2022/08/30 10:37:52;;;;;;;;;;;19.10;99.90;;;;;;5092946;28;19908;-73
2022/08/30 10:43:30;;;;;;;;;;;19.10;99.90;;;;;;5092186;28;19958;-72
2022/08/30 10:45:59;;;;;;;;;;;19.10;99.90;;;;;;5092814;28;19912;-72
2022/08/30 10:48:30;;;;;;;;;;;19.10;99.90;;;;;;5092161;28;20011;-73
2022/08/30 10:50:57;;;;;;;;;;;19.10;99.90;;;;;;5092845;28;19917;-73
2022/08/30 10:53:38;;;;;;;;;;;19.20;99.90;;;;;;5092123;28;20006;-73
2022/08/30 10:56:15;;;;;;;;;;;19.10;99.90;;;;;;5090576;28;19908;-73
2022/08/30 10:58:41;;;;;;;;;;;19.10;99.90;;;;;;5091209;28;19908;-73
2022/08/30 11:01:19;;;;;;;;;;;19.00;99.90;;;;;;5092270;28;19919;-73
2022/08/30 11:03:54;;;;;;;;;;;19.20;99.90;;;;;;5092778;28;20357;-73
2022/08/30 11:06:38;;;;;;;;;;;19.10;99.90;;;;;;5091688;28;19916;-73
2022/08/30 11:09:22;;;;;;;;;;;19.30;99.90;;;;;;5092037;28;20441;-73
2022/08/30 11:11:50;;;;;;;;;;;19.30;99.90;;;;;;5092476;28;19916;-73
2022/08/30 11:14:17;;;;;;;;;;;19.40;99.90;;;;;;5092089;28;19908;-73
2022/08/30 11:16:45;;;;;;;;;;;19.50;99.90;;;;;;5092571;28;19914;-73
2022/08/30 11:19:13;;;;;;;;;;;19.50;99.90;;;;;;5092069;28;19962;-74
2022/08/30 11:21:40;;;;;;;;;;;19.60;99.90;;;;;;5092935;28;19961;-73
2022/08/30 11:24:11;;;;;;;;;;;19.60;99.90;;;;;;5091733;28;20365;-73
2022/08/30 11:26:47;;;;;;;;;;;19.70;99.90;;;;;;5092441;28;19992;-73
2022/08/30 11:29:24;;;;;;;;;;;19.70;99.90;;;;;;5091861;28;19912;-74
2022/08/30 11:31:50;;;;;;;;;;;19.60;99.90;;;;;;5092280;28;19974;-73
2022/08/30 11:34:35;;;;;;;;;;;19.50;99.90;;;;;;5091734;28;19909;-74
2022/08/30 11:37:02;;;;;;;;;;;19.30;99.90;;;;;;5092243;28;19908;-74
2022/08/30 11:39:40;;;;;;;;;;;19.20;99.90;;;;;;5091688;28;19912;-72
2022/08/30 11:42:12;;;;;;;;;;;19.30;99.90;;;;;;5092070;28;19908;-73
2022/08/30 11:44:37;;;;;;;;;;;19.30;99.90;;;;;;5092995;28;19912;-74
2022/08/30 11:47:24;;;;;;;;;;;19.30;99.90;;;;;;5095807;28;19965;-73
2022/08/30 11:49:49;;;;;;;;;;;19.10;99.90;;;;;;5095863;28;20068;-73
2022/08/30 11:52:15;;;;;;;;;;;18.90;99.90;;;;;;5095377;28;20041;-73
2022/08/30 11:54:40;;;;;;;;;;;18.80;99.90;;;;;;5094534;28;19915;-72
2022/08/30 11:57:06;;;;;;;;;;;18.80;99.90;;;;;;5095003;28;19908;-73
2022/08/30 11:59:34;;;;;;;;;;;18.80;99.90;;;;;;5095369;28;19908;-72
2022/08/30 12:02:00;;;;;;;;;;;18.90;99.90;;;;;;5095375;28;19953;-73
2022/08/30 12:04:27;;;;;;;;;;;18.70;99.90;;;;;;5094734;28;20474;-73
2022/08/30 12:06:57;;;;;;;;;;;18.70;99.90;;;;;;5095406;28;20022;-73
2022/08/30 12:09:23;;;;;;;;;;;18.70;99.90;;;;;;5095153;28;19908;-73
2022/08/30 12:11:54;;;;;;;;;;;18.80;99.90;;;;;;5095033;28;19908;-73
2022/08/30 12:14:32;;;;;;;;;;;18.80;99.90;;;;;;5094976;28;19987;-73
2022/08/30 12:19:43;;;;;;;;;;;19.30;99.90;;;;;;5095657;28;20422;-73
2022/08/30 12:22:14;;;;;;;;;;;19.50;99.90;;;;;;5094923;28;19908;-73
2022/08/30 12:24:42;;;;;;;;;;;19.70;99.90;;;;;;5095006;28;19912;-73
2022/08/30 12:27:22;;;;;;;;;;;19.70;99.90;;;;;;5094896;28;19951;-73
2022/08/30 12:29:56;;;;;;;;;;;19.80;99.90;;;;;;5093721;28;19916;-73
2022/08/30 12:32:22;;;;;;;;;;;19.90;99.90;;;;;;5094424;28;19916;-74
2022/08/30 12:34:55;;;;;;;;;;;20.00;99.90;;;;;;5094824;28;20011;-73
2022/08/30 12:37:30;;;;;;;;;;;20.20;99.90;;;;;;5093466;28;20147;-73
2022/08/30 12:40:11;;;;;;;;;;;20.20;99.90;;;;;;5095264;28;19982;-74
2022/08/30 12:42:40;;;;;;;;;;;20.30;99.90;;;;;;5094980;28;19959;-73
2022/08/30 12:45:09;;;;;;;;;;;20.10;99.90;;;;;;5094864;28;20367;-74
2022/08/30 12:47:44;;;;;;;;;;;20.10;99.90;;;;;;5094725;28;19919;-74
2022/08/30 12:50:12;;;;;;;;;;;20.10;99.90;;;;;;5094402;28;19908;-74
2022/08/30 12:52:39;;;;;;;;;;;20.00;99.90;;;;;;5094776;28;19915;-74
2022/08/30 12:55:16;;;;;;;;;;;19.80;99.90;;;;;;5094289;28;20017;-74
2022/08/30 12:57:43;;;;;;;;;;;19.50;99.90;;;;;;5094763;28;20375;-74
2022/08/30 13:00:10;;;;;;;;;;;19.30;99.90;;;;;;5094291;28;19978;-74
2022/08/30 13:02:42;;;;;;;;;;;19.30;99.90;;;;;;5094484;28;19954;-74
2022/08/30 13:05:26;;;;;;;;;;;19.30;99.90;;;;;;5094430;28;19916;-74
2022/08/30 13:07:51;;;;;;;;;;;19.30;99.90;;;;;;5094546;28;19912;-74
2022/08/30 13:10:18;;;;;;;;;;;19.30;99.90;;;;;;5093701;28;19981;-74
2022/08/30 13:13:03;;;;;;;;;;;19.30;99.90;;;;;;5094249;28;19909;-74
2022/08/30 13:15:40;;;;;;;;;;;19.20;99.90;;;;;;5093579;28;20022;-74
2022/08/30 13:18:10;;;;;;;;;;;19.40;99.90;;;;;;5093964;28;19915;-74
2022/08/30 13:20:35;;;;;;;;;;;19.40;99.90;;;;;;5093817;28;19984;-74
2022/08/30 13:23:06;;;;;;;;;;;19.50;99.90;;;;;;5093735;28;19908;-74
2022/08/30 13:25:32;;;;;;;;;;;19.60;99.90;;;;;;5093156;28;20358;-75
2022/08/30 13:27:58;;;;;;;;;;;19.60;99.90;;;;;;5093953;28;19938;-74
2022/08/30 13:30:24;;;;;;;;;;;19.70;99.90;;;;;;5093123;28;20376;-74
2022/08/30 13:32:49;;;;;;;;;;;19.60;99.90;;;;;;5094260;28;19908;-74
2022/08/30 13:35:15;;;;;;;;;;;19.70;99.90;;;;;;5092787;28;19989;-74
2022/08/30 13:37:41;;;;;;;;;;;19.60;99.90;;;;;;5093612;28;19919;-74
2022/08/30 13:40:08;;;;;;;;;;;19.60;99.90;;;;;;5092490;28;20422;-73
2022/08/30 13:42:33;;;;;;;;;;;19.70;99.90;;;;;;5093032;28;20369;-74
2022/08/30 13:44:59;;;;;;;;;;;19.80;99.90;;;;;;5093657;28;19919;-73
2022/08/30 13:47:24;;;;;;;;;;;19.90;99.90;;;;;;5093196;28;19912;-74
2022/08/30 13:49:50;;;;;;;;;;;19.80;99.90;;;;;;5093601;28;19908;-74
2022/08/30 13:52:17;;;;;;;;;;;19.60;99.90;;;;;;5093040;28;20379;-74
2022/08/30 13:54:43;;;;;;;;;;;19.50;99.90;;;;;;5093592;28;19961;-73
2022/08/30 13:57:08;;;;;;;;;;;19.30;99.90;;;;;;5093332;28;19912;-73
2022/08/30 13:59:34;;;;;;;;;;;19.20;99.90;;;;;;5092737;28;19904;-74
2022/08/30 14:02:00;;;;;;;;;;;19.30;99.90;;;;;;5093493;28;19915;-74
2022/08/30 14:04:26;;;;;;;;;;;19.20;99.90;;;;;;5092742;28;19921;-73
2022/08/30 14:06:52;;;;;;;;;;;19.10;99.90;;;;;;5093228;28;20290;-74
2022/08/30 14:09:17;;;;;;;;;;;19.30;99.90;;;;;;5092364;28;20365;-73
2022/08/30 14:11:43;;;;;;;;;;;19.40;99.90;;;;;;5093468;28;20318;-74
2022/08/30 14:14:09;;;;;;;;;;;19.40;99.90;;;;;;5093246;28;19915;-74
2022/08/30 14:16:36;;;;;;;;;;;19.30;99.90;;;;;;5092600;28;19904;-74
2022/08/30 14:19:01;;;;;;;;;;;19.10;99.90;;;;;;5093133;28;20041;-74
2022/08/30 14:21:27;;;;;;;;;;;19.00;99.90;;;;;;5092522;28;19947;-74
2022/08/30 14:23:54;;;;;;;;;;;18.90;99.90;;;;;;5092997;28;20365;-74
2022/08/30 14:26:21;;;;;;;;;;;19.00;99.90;;;;;;5092632;28;19912;-74
2022/08/30 14:28:47;;;;;;;;;;;18.90;99.90;;;;;;5092979;28;19916;-74
2022/08/30 14:31:14;;;;;;;;;;;19.00;99.90;;;;;;5092847;28;20000;-74